Thunderstorms From: 15-12-2017 06:00 Until: 16-12-2017 06:00 warning for: Thunderstorms Level: Yellow info button

Although rather usual in this region, locally or potentially dangerous phenomena are expected. (such as local winds, summer thunderstorms, rising streams or high waves) Be aware and pay attention to the latest weather updates, especially if you carry out activities exposed to weather or close to a stream or shoreline. 


Meteo18 Weather Cam more information Meteo18 Weather Cam


warning for Thunderstorms more information blitzortung!


Rain radar more information rain snow radar


Visit our other weather sites:

Template documentation
and downloads

And another site



Weather Underground History page Text

Daily Summary for June 19, 2017 Units:  English    Metric   Both
« Previous Day
Next Day »
Daily Weekly Monthly Yearly Custom
  High: Low: Average:
Temperature: 93 °F 61.5 °F 78.3 °F
Dew Point: 66.7 °F 56.7 °F 61.3 °F
Humidity: 84 % 33 % 59 %
Wind Speed: 7 mph 0 mph 1.4 mph
Wind Gust: 10 mph - -
Wind:- - SSE
Pressure: 30.1 in 30 in -
Precipitation: 0 in    
Historical Graphs
 
 
Tabular Data for June 19, 2017
Time Temperature Dew Point Pressure Wind Wind Speed Wind Gust Humidity Rainfall Rate (Hourly)
00:02 71.2 °F 59.7 °F 30.1 in NE 3 mph 8 mph 67 % 0 in
00:07 71.1 °F 59.5 °F 30.1 in NE 4 mph 8 mph 67 % 0 in
00:12 71.1 °F 59.5 °F 30.1 in NE 2 mph 8 mph 67 % 0 in
00:17 70.5 °F 59.4 °F 30.1 in NE 2 mph 8 mph 68 % 0 in
00:22 70.3 °F 59.4 °F 30.1 in Calm   6 mph 68 % 0 in
00:27 70 °F 59.4 °F 30.1 in Calm   6 mph 69 % 0 in
00:32 69.6 °F 59 °F 30.1 in Calm   6 mph 69 % 0 in
00:42 68.9 °F 59.2 °F 30.1 in Calm   3 mph 71 % 0 in
00:47 68.7 °F 59.4 °F 30.1 in Calm   1 mph 72 % 0 in
00:52 69.1 °F 59.4 °F 30.1 in NE 1 mph 2 mph 71 % 0 in
00:57 69.3 °F 59.5 °F 30.1 in NE 1 mph 4 mph 71 % 0 in
01:02 69.3 °F 59.5 °F 30.1 in NE 1 mph 4 mph 71 % 0 in
01:07 69.3 °F 59.5 °F 30.1 in NE 1 mph 4 mph 71 % 0 in
01:12 69.1 °F 59.4 °F 30.1 in NE 1 mph 3 mph 71 % 0 in
01:17 68.7 °F 59.4 °F 30.1 in Calm   3 mph 72 % 0 in
01:22 68.4 °F 59.4 °F 30.1 in Calm   3 mph 73 % 0 in
01:27 68.2 °F 59.2 °F 30.1 in NNW 1 mph 3 mph 73 % 0 in
01:32 68.2 °F 59.2 °F 30.1 in NNW 2 mph 3 mph 73 % 0 in
01:37 68.2 °F 59.2 °F 30.1 in NW 1 mph 3 mph 73 % 0 in
01:42 68.2 °F 59.2 °F 30.1 in NNW 1 mph 3 mph 73 % 0 in
01:47 67.8 °F 58.8 °F 30.1 in Calm   3 mph 73 % 0 in
01:57 67.5 °F 58.5 °F 30.1 in NW 1 mph 3 mph 73 % 0 in
02:02 67.3 °F 58.6 °F 30.1 in NNW 1 mph 3 mph 74 % 0 in
02:07 67.1 °F 58.5 °F 30.1 in Calm   3 mph 74 % 0 in
02:12 66.6 °F 58.5 °F 30.1 in North 1 mph 2 mph 75 % 0 in
02:17 66.4 °F 58.3 °F 30.1 in NNW 1 mph 2 mph 75 % 0 in
02:22 66 °F 58.3 °F 30.1 in NW 1 mph 2 mph 76 % 0 in
02:27 65.8 °F 58.1 °F 30.1 in Calm   2 mph 76 % 0 in
02:32 65.7 °F 58.3 °F 30.1 in Calm   2 mph 77 % 0 in
02:37 65.5 °F 58.1 °F 30.1 in Calm   2 mph 77 % 0 in
02:42 65.5 °F 58.1 °F 30.1 in Calm   1 mph 77 % 0 in
02:47 65.3 °F 58.3 °F 30.1 in NNW 2 mph 2 mph 78 % 0 in
02:52 65.3 °F 58.3 °F 30.1 in Calm   2 mph 78 % 0 in
02:57 65.1 °F 58.1 °F 30.1 in NW 1 mph 2 mph 78 % 0 in
03:02 64.9 °F 57.9 °F 30.1 in NNW 1 mph 2 mph 78 % 0 in
03:07 65.1 °F 58.1 °F 30.1 in NNW 2 mph 2 mph 78 % 0 in
03:12 64.9 °F 57.9 °F 30.1 in Calm   2 mph 78 % 0 in
03:17 64.6 °F 57.9 °F 30.1 in NW 1 mph 3 mph 79 % 0 in
03:22 64.2 °F 57.9 °F 30.1 in NW 2 mph 3 mph 80 % 0 in
03:27 64 °F 57.7 °F 30.1 in NNW 2 mph 3 mph 80 % 0 in
03:32 64.2 °F 57.9 °F 30.1 in North 1 mph 3 mph 80 % 0 in
03:37 64 °F 57.7 °F 30.1 in North 1 mph 3 mph 80 % 0 in
03:42 64 °F 57.7 °F 30.1 in Calm   2 mph 80 % 0 in
03:47 64.2 °F 57.9 °F 30.1 in NNW 1 mph 2 mph 80 % 0 in
03:52 64.2 °F 57.9 °F 30.1 in North 1 mph 3 mph 80 % 0 in
03:57 64 °F 57.7 °F 30.1 in Calm   3 mph 80 % 0 in
04:02 63.9 °F 57.6 °F 30.1 in Calm   3 mph 80 % 0 in
04:12 63.9 °F 57.6 °F 30.1 in Calm   2 mph 80 % 0 in
04:17 63.9 °F 57.6 °F 30.1 in Calm   2 mph 80 % 0 in
04:22 63.7 °F 57.4 °F 30.1 in Calm   2 mph 80 % 0 in
04:27 63.3 °F 57 °F 30.1 in Calm   1 mph 80 % 0 in
04:32 62.8 °F 56.8 °F 30.1 in Calm   1 mph 81 % 0 in
04:37 62.6 °F 57 °F 30.1 in Calm   1 mph 82 % 0 in
04:42 62.1 °F 56.8 °F 30.1 in WNW 1 mph 1 mph 83 % 0 in
04:47 61.9 °F 57 °F 30.1 in Calm   1 mph 84 % 0 in
04:52 62.1 °F 57.2 °F 30.1 in Calm   1 mph 84 % 0 in
04:57 62.2 °F 57.4 °F 30.1 in Calm   1 mph 84 % 0 in
05:02 62.4 °F 57.2 °F 30.1 in Calm   1 mph 83 % 0 in
05:12 62.4 °F 57.2 °F 30.1 in Calm   1 mph 83 % 0 in
05:17 62.2 °F 57 °F 30.1 in NNW 1 mph   83 % 0 in
05:22 62.2 °F 57 °F 30.1 in Calm     83 % 0 in
05:32 61.5 °F 56.7 °F 30.1 in North 1 mph 2 mph 84 % 0 in
05:42 61.5 °F 56.7 °F 30.1 in NNW 2 mph 2 mph 84 % 0 in
05:47 61.7 °F 56.8 °F 30.1 in NW 2 mph 2 mph 84 % 0 in
05:52 62.1 °F 57.2 °F 30.1 in NNW 1 mph 2 mph 84 % 0 in
05:57 62.1 °F 56.8 °F 30.1 in Calm   3 mph 83 % 0 in
06:02 61.9 °F 56.7 °F 30.1 in North 2 mph 3 mph 83 % 0 in
06:07 61.7 °F 56.8 °F 30.1 in Calm   3 mph 84 % 0 in
06:12 61.5 °F 56.7 °F 30.1 in NNW 2 mph 3 mph 84 % 0 in
06:17 61.5 °F 56.7 °F 30.1 in NNE 1 mph 3 mph 84 % 0 in
06:22 61.5 °F 56.7 °F 30.1 in North 2 mph 3 mph 84 % 0 in
06:27 61.9 °F 57 °F 30.1 in North 1 mph 3 mph 84 % 0 in
06:32 62.1 °F 56.8 °F 30.1 in North 2 mph 3 mph 83 % 0 in
06:42 63.1 °F 57.6 °F 30.1 in NW 2 mph 3 mph 82 % 0 in
06:47 63.7 °F 57.7 °F 30.1 in Calm   3 mph 81 % 0 in
06:52 64.2 °F 58.3 °F 30.1 in Calm   3 mph 81 % 0 in
06:57 64.4 °F 57.7 °F 30.1 in NE 2 mph 3 mph 79 % 0 in
07:02 64 °F 57.4 °F 30.1 in North 1 mph 3 mph 79 % 0 in
07:12 65.1 °F 58.5 °F 30.1 in Calm   2 mph 79 % 0 in
07:17 65.8 °F 58.5 °F 30.1 in North 2 mph 2 mph 77 % 0 in
07:22 66.2 °F 59.2 °F 30.1 in Calm   2 mph 78 % 0 in
07:32 66.6 °F 59.2 °F 30.1 in NNE 2 mph 2 mph 77 % 0 in
07:37 66.4 °F 59 °F 30.1 in NNE 2 mph 2 mph 77 % 0 in
07:42 66.6 °F 59.9 °F 30.1 in North 2 mph 2 mph 79 % 0 in
07:47 66.7 °F 59.7 °F 30.1 in Calm   3 mph 78 % 0 in
07:52 67.3 °F 59.9 °F 30.1 in NE 1 mph 3 mph 77 % 0 in
08:02 68.2 °F 60.3 °F 30.1 in Calm   3 mph 76 % 0 in
08:12 69.3 °F 60.3 °F 30.1 in NNE 2 mph 3 mph 73 % 0 in
08:17 69.6 °F 60.6 °F 30.1 in East 1 mph 3 mph 73 % 0 in
08:22 70.2 °F 61.2 °F 30.1 in NNE 2 mph 3 mph 73 % 0 in
08:32 71.4 °F 61.9 °F 30.1 in Calm   3 mph 72 % 0 in
08:37 72.1 °F 61.3 °F 30.1 in NNE 2 mph 2 mph 69 % 0 in
08:42 72.5 °F 61.3 °F 30.1 in NNE 2 mph 2 mph 68 % 0 in
08:52 73.4 °F 61.3 °F 30.1 in East 2 mph 3 mph 66 % 0 in
09:02 74.1 °F 62.1 °F 30.1 in East 1 mph 3 mph 66 % 0 in
09:12 74.8 °F 61.9 °F 30.1 in Calm   6 mph 64 % 0 in
09:22 75.9 °F 62.4 °F 30.1 in ESE 2 mph 7 mph 63 % 0 in
09:32 75.7 °F 62.2 °F 30.1 in SE 1 mph 5 mph 63 % 0 in
09:42 76.3 °F 63.1 °F 30.1 in Calm   5 mph 64 % 0 in
09:47 76.6 °F 62.6 °F 30.1 in ENE 4 mph 6 mph 62 % 0 in
09:52 76.3 °F 63.1 °F 30.1 in SE 2 mph 6 mph 64 % 0 in
10:02 76.6 °F 63.1 °F 30.1 in SSW 1 mph 4 mph 63 % 0 in
10:12 77.2 °F 63.1 °F 30.1 in East 2 mph 6 mph 62 % 0 in
10:22 78.1 °F 63.5 °F 30.1 in Calm   6 mph 61 % 0 in
10:32 78.6 °F 64.6 °F 30.1 in ENE 2 mph 5 mph 62 % 0 in
10:42 78.3 °F 63.7 °F 30.1 in Calm   4 mph 61 % 0 in
10:47 78.8 °F 64.2 °F 30.1 in ESE 3 mph 7 mph 61 % 0 in
10:52 79 °F 63.9 °F 30.1 in ENE 1 mph 7 mph 60 % 0 in
11:02 80.2 °F 64.6 °F 30.1 in ESE 3 mph 5 mph 59 % 0 in
11:12 81.7 °F 66 °F 30.1 in East 1 mph 5 mph 59 % 0 in
11:17 82.4 °F 65.7 °F 30.1 in Calm   4 mph 57 % 0 in
11:22 82.8 °F 65.5 °F 30.1 in East 2 mph 4 mph 56 % 0 in
11:32 83.1 °F 64.8 °F 30.1 in ESE 5 mph 5 mph 54 % 0 in
11:42 82.8 °F 65.5 °F 30.1 in Calm   6 mph 56 % 0 in
11:47 83.1 °F 64.8 °F 30.1 in ENE 3 mph 9 mph 54 % 0 in
11:52 83.5 °F 65.7 °F 30.1 in ESE 2 mph 9 mph 55 % 0 in
12:02 83.8 °F 65.5 °F 30.1 in Calm   7 mph 54 % 0 in
12:12 84.4 °F 65.8 °F 30.1 in SE 1 mph 7 mph 54 % 0 in
12:17 84.7 °F 65.1 °F 30.1 in SW 2 mph 7 mph 52 % 0 in
12:22 85.3 °F 65.1 °F 30.1 in ENE 3 mph 5 mph 51 % 0 in
12:27 84.9 °F 64.8 °F 30.1 in SE 2 mph 5 mph 51 % 0 in
12:32 85.5 °F 65.3 °F 30.1 in NE 4 mph 5 mph 51 % 0 in
12:42 86.4 °F 64.4 °F 30.1 in ENE 2 mph 5 mph 48 % 0 in
12:47 86.5 °F 63.9 °F 30.1 in ENE 5 mph 5 mph 47 % 0 in
12:52 86.4 °F 64.9 °F 30.1 in ENE 4 mph 6 mph 49 % 0 in
12:57 85.6 °F 63.7 °F 30.1 in ENE 4 mph 8 mph 48 % 0 in
13:02 85.8 °F 63.9 °F 30.1 in NE 3 mph 8 mph 48 % 0 in
13:07 86.2 °F 64.2 °F 30.1 in NE 4 mph 8 mph 48 % 0 in
13:12 86.5 °F 63.3 °F 30.1 in East 5 mph 8 mph 46 % 0 in
13:17 86.9 °F 61.7 °F 30.1 in WSW 1 mph 7 mph 43 % 0 in
13:22 87.6 °F 62.4 °F 30.1 in Calm   6 mph 43 % 0 in
13:27 88.3 °F 62.4 °F 30.1 in ENE 2 mph 6 mph 42 % 0 in
13:32 88.7 °F 64 °F 30.1 in SW 2 mph 6 mph 44 % 0 in
13:42 89.4 °F 64 °F 30.1 in SSE 1 mph 6 mph 43 % 0 in
13:52 89.2 °F 63.1 °F 30.1 in ENE 4 mph 7 mph 42 % 0 in
13:57 88.9 °F 62.8 °F 30.1 in ENE 3 mph 8 mph 42 % 0 in
14:02 89.2 °F 63.1 °F 30.1 in WSW 1 mph 8 mph 42 % 0 in
14:12 89.1 °F 62.2 °F 30.1 in East 2 mph 7 mph 41 % 0 in
14:17 88.9 °F 63.5 °F 30.1 in ENE 1 mph 7 mph 43 % 0 in
14:22 89.1 °F 63.7 °F 30.1 in ENE 1 mph 7 mph 43 % 0 in
14:27 88.9 °F 63.5 °F 30.1 in ENE 5 mph 10 mph 43 % 0 in
14:32 88.9 °F 62.8 °F 30.1 in West 2 mph 10 mph 42 % 0 in
14:37 89.4 °F 64 °F 30.1 in SSE 4 mph 10 mph 43 % 0 in
14:42 90.3 °F 64 °F 30.1 in SE 2 mph 10 mph 42 % 0 in
14:47 90.5 °F 63.5 °F 30 in East 3 mph 10 mph 41 % 0 in
14:52 90.7 °F 63.7 °F 30 in SE 1 mph 10 mph 41 % 0 in
14:57 91.2 °F 64.2 °F 30 in SSE 4 mph 8 mph 41 % 0 in
15:02 90.9 °F 63.9 °F 30 in SE 1 mph 8 mph 41 % 0 in
15:07 91.6 °F 63.9 °F 30 in ENE 2 mph 8 mph 40 % 0 in
15:12 90.9 °F 63.9 °F 30 in East 6 mph 7 mph 41 % 0 in
15:22 92.1 °F 64.9 °F 30 in SSW 3 mph 7 mph 41 % 0 in
15:27 92.1 °F 62.8 °F 30 in Calm   7 mph 38 % 0 in
15:32 92.7 °F 64.8 °F 30 in ESE 3 mph 7 mph 40 % 0 in
15:37 92.5 °F 63.9 °F 30 in ENE 7 mph 7 mph 39 % 0 in
15:42 92.1 °F 63.7 °F 30 in SE 6 mph 9 mph 39 % 0 in
15:47 92.5 °F 63.9 °F 30 in ESE 1 mph 9 mph 39 % 0 in
15:52 92.1 °F 62.8 °F 30 in SW 3 mph 9 mph 38 % 0 in
16:02 92.3 °F 62.2 °F 30 in SSW 3 mph 8 mph 37 % 0 in
16:07 92.1 °F 62.8 °F 30 in ESE 3 mph 7 mph 38 % 0 in
16:12 91.6 °F 61.7 °F 30 in East 4 mph 9 mph 37 % 0 in
16:17 91.8 °F 61.7 °F 30 in SSE 2 mph 9 mph 37 % 0 in
16:22 92.1 °F 62.1 °F 30 in East 3 mph 9 mph 37 % 0 in
16:32 91.9 °F 61.2 °F 30 in ENE 2 mph 7 mph 36 % 0 in
16:37 92.1 °F 62.1 °F 30 in ENE 6 mph 7 mph 37 % 0 in
16:42 92.3 °F 60.6 °F 30 in SSE 3 mph 8 mph 35 % 0 in
16:47 92.1 °F 60.4 °F 30 in Calm   8 mph 35 % 0 in
16:52 92.7 °F 63.3 °F 30 in SE 2 mph 8 mph 38 % 0 in
16:57 92.7 °F 61.9 °F 30 in East 2 mph 5 mph 36 % 0 in
17:02 92.7 °F 60.3 °F 30 in SW 3 mph 5 mph 34 % 0 in
17:07 92.7 °F 61 °F 30 in East 3 mph 4 mph 35 % 0 in
17:12 92.5 °F 61.7 °F 30 in ESE 2 mph 6 mph 36 % 0 in
17:22 92.1 °F 60.4 °F 30 in SE 2 mph 7 mph 35 % 0 in
17:27 92.5 °F 60.8 °F 30 in ESE 1 mph 7 mph 35 % 0 in
17:32 92.7 °F 61 °F 30 in NE 4 mph 7 mph 35 % 0 in
17:37 91.9 °F 60.4 °F 30 in Calm   7 mph 35 % 0 in
17:42 92.5 °F 60.8 °F 30 in ESE 4 mph 7 mph 35 % 0 in
17:47 92.1 °F 60.4 °F 30 in ENE 5 mph 7 mph 35 % 0 in
17:52 91.8 °F 60.3 °F 30 in East 2 mph 7 mph 35 % 0 in
17:57 91.8 °F 59.4 °F 30 in ESE 3 mph 7 mph 34 % 0 in
18:02 91.9 °F 60.4 °F 30 in SE 3 mph 7 mph 35 % 0 in
18:12 91.6 °F 59.2 °F 30 in ENE 4 mph 8 mph 34 % 0 in
18:17 91.6 °F 60.1 °F 30 in East 2 mph 8 mph 35 % 0 in
18:22 91.4 °F 59 °F 30 in East 3 mph 8 mph 34 % 0 in
18:27 91.6 °F 59.2 °F 30 in East 1 mph 8 mph 34 % 0 in
18:32 92.5 °F 60.8 °F 30 in Calm   6 mph 35 % 0 in
18:42 92.8 °F 59.5 °F 30 in East 1 mph 5 mph 33 % 0 in
18:47 92.5 °F 60.1 °F 30 in SE 1 mph 4 mph 34 % 0 in
18:52 93 °F 60.4 °F 30 in East 1 mph 4 mph 34 % 0 in
18:57 92.8 °F 60.3 °F 30 in Calm   4 mph 34 % 0 in
19:02 92.8 °F 60.3 °F 30 in East 1 mph 4 mph 34 % 0 in
19:12 92.5 °F 61.7 °F 30 in SSW 2 mph 4 mph 36 % 0 in
19:17 92.7 °F 61 °F 30 in SW 3 mph 4 mph 35 % 0 in
19:22 92.5 °F 60.8 °F 30 in SE 3 mph 4 mph 35 % 0 in
19:32 92.8 °F 62.8 °F 30 in Calm   4 mph 37 % 0 in
19:37 92.7 °F 62.6 °F 30 in Calm   3 mph 37 % 0 in
19:42 91.8 °F 63.3 °F 30 in East 2 mph 3 mph 39 % 0 in
19:47 90.9 °F 63.9 °F 30 in East 3 mph 6 mph 41 % 0 in
19:52 90.1 °F 63.9 °F 30 in East 2 mph 6 mph 42 % 0 in
19:57 89.8 °F 64.2 °F 30 in ENE 2 mph 6 mph 43 % 0 in
20:02 89.4 °F 64.6 °F 30 in East 3 mph 6 mph 44 % 0 in
20:07 89.2 °F 65.1 °F 30 in Calm   4 mph 45 % 0 in
20:12 89.1 °F 64.9 °F 30 in East 1 mph 4 mph 45 % 0 in
20:17 88.9 °F 64.8 °F 30 in Calm   4 mph 45 % 0 in
20:22 88.7 °F 64.6 °F 30 in East 1 mph 4 mph 45 % 0 in
20:27 88.5 °F 65.1 °F 30 in ENE 1 mph 4 mph 46 % 0 in
20:32 88.5 °F 64.4 °F 30 in ENE 2 mph 4 mph 45 % 0 in
20:37 88.2 °F 64.8 °F 30 in ESE 1 mph 3 mph 46 % 0 in
20:42 88 °F 65.3 °F 30 in East 2 mph 3 mph 47 % 0 in
20:52 86.7 °F 65.3 °F 30 in ENE 2 mph 5 mph 49 % 0 in
20:57 86.4 °F 66 °F 30 in ENE 2 mph 5 mph 51 % 0 in
21:02 85.8 °F 65.7 °F 30 in ENE 1 mph 5 mph 51 % 0 in
21:07 85.8 °F 66.2 °F 30 in Calm   3 mph 52 % 0 in
21:12 86.5 °F 66.7 °F 30 in Calm   2 mph 52 % 0 in
21:17 85.8 °F 65.7 °F 30 in Calm   1 mph 51 % 0 in
21:22 85.6 °F 64.9 °F 30 in Calm   1 mph 50 % 0 in
21:32 84.7 °F 64.6 °F 30 in East 1 mph 1 mph 51 % 0 in
21:37 84 °F 64.6 °F 30 in ENE 1 mph 2 mph 52 % 0 in
21:42 83.1 °F 64.8 °F 30 in Calm   2 mph 54 % 0 in
21:47 81.9 °F 64.6 °F 30 in Calm   2 mph 56 % 0 in
21:52 80.6 °F 64.4 °F 30 in Calm   1 mph 58 % 0 in
22:02 79.3 °F 64.8 °F 30 in WNW 1 mph 2 mph 61 % 0 in
22:07 79 °F 64.4 °F 30 in Calm   2 mph 61 % 0 in
22:12 78.6 °F 64 °F 30 in WNW 1 mph 2 mph 61 % 0 in
22:17 78.4 °F 63.9 °F 30 in WNW 1 mph 2 mph 61 % 0 in
22:22 78.4 °F 64.4 °F 30 in WNW 1 mph 2 mph 62 % 0 in
22:32 77.7 °F 64.6 °F 30 in Calm   2 mph 64 % 0 in
22:37 77.7 °F 64.6 °F 30 in Calm   1 mph 64 % 0 in
22:42 77.5 °F 64.4 °F 30 in Calm   1 mph 64 % 0 in
22:47 77.4 °F 64.8 °F 30 in WNW 1 mph 1 mph 65 % 0 in
22:52 76.5 °F 64.8 °F 30 in WNW 1 mph 2 mph 67 % 0 in
22:57 75.7 °F 64.4 °F 30 in Calm   2 mph 68 % 0 in
23:02 75.7 °F 64 °F 30 in Calm   2 mph 67 % 0 in
23:12 75.6 °F 63.9 °F 30 in WNW 1 mph 2 mph 67 % 0 in
23:17 74.7 °F 63.9 °F 30 in Calm   2 mph 69 % 0 in
23:22 74.5 °F 63.7 °F 30 in Calm   2 mph 69 % 0 in
23:27 74.7 °F 63.9 °F 30 in Calm   2 mph 69 % 0 in
23:32 74.7 °F 63.3 °F 30 in Calm   2 mph 68 % 0 in
23:37 74.5 °F 63.7 °F 30 in Calm   1 mph 69 % 0 in
23:42 74.5 °F 63.7 °F 30 in Calm     69 % 0 in
23:52 74.3 °F 63.5 °F 30 in Calm     69 % 0 in
23:57 73.9 °F 63.5 °F 30 in Calm     70 % 0 in
Meteo18
Compliments of Weather Underground - 4 mb

Script developed by  Jim McMurry - jmcmurry@mwt.net Adapted for the template by  Wim van der Kuil - Leuven-Template.eu

You find our weather info also at:

European Weather Network

Weather Underground

Equipment we use:

Weather-station
Davis Vue

Weather-program
Meteohub

Weather-server
Raspberry PI 2 B+

Provider
1 and 1

Davis Vue

Meteohub

Raspberry PI 2 B+

1 and 1